createdAt,value
2022-08-18T00:00:48.096Z,52.47
2022-08-18T00:01:53.461Z,52.20
2022-08-18T00:03:01.302Z,52.32
2022-08-18T00:04:07.776Z,52.52
2022-08-18T00:05:29.896Z,52.36
2022-08-18T00:06:32.341Z,52.56
2022-08-18T00:07:33.962Z,52.58
2022-08-18T00:08:38.505Z,52.64
2022-08-18T00:09:40.480Z,52.76
2022-08-18T00:10:42.312Z,52.63
2022-08-18T00:11:44.219Z,52.92
2022-08-18T00:12:45.728Z,52.86
2022-08-18T00:13:47.208Z,52.89
2022-08-18T00:14:48.773Z,52.93
2022-08-18T00:15:50.389Z,52.58
2022-08-18T00:16:52.611Z,52.79
2022-08-18T00:17:54.180Z,52.75
2022-08-18T00:18:55.691Z,52.64
2022-08-18T00:19:57.261Z,52.65
2022-08-18T00:20:59.016Z,52.76
2022-08-18T00:22:00.572Z,52.80
2022-08-18T00:23:02.064Z,52.74
2022-08-18T00:24:04.000Z,52.66
2022-08-18T00:25:05.887Z,52.68
2022-08-18T00:26:07.407Z,52.58
2022-08-18T00:27:10.952Z,52.57
2022-08-18T00:28:13.975Z,52.63
2022-08-18T00:29:15.504Z,52.63
2022-08-18T00:30:18.305Z,52.53
2022-08-18T00:31:19.859Z,52.66
2022-08-18T00:32:22.972Z,52.62
2022-08-18T00:33:24.498Z,52.67
2022-08-18T00:34:26.051Z,52.77
2022-08-18T00:35:33.515Z,52.69
2022-08-18T00:36:35.443Z,52.80
2022-08-18T00:37:37.347Z,52.95
2022-08-18T00:38:38.987Z,52.91
2022-08-18T00:39:46.052Z,52.79
2022-08-18T00:40:49.703Z,52.94
2022-08-18T00:41:51.424Z,52.74
2022-08-18T00:42:54.118Z,52.94
2022-08-18T00:43:58.354Z,52.68
2022-08-18T00:45:00.996Z,52.95
2022-08-18T00:46:02.563Z,53.02
2022-08-18T00:47:04.140Z,52.92
2022-08-18T00:48:05.887Z,52.86
2022-08-18T00:49:07.487Z,53.17
2022-08-18T00:50:14.784Z,53.19
2022-08-18T00:51:37.277Z,53.17
2022-08-18T00:52:38.867Z,53.23
2022-08-18T00:53:49.624Z,53.18
2022-08-18T00:54:51.324Z,53.32
2022-08-18T00:55:54.384Z,53.33
2022-08-18T00:56:57.290Z,53.40
2022-08-18T00:58:01.798Z,53.58
2022-08-18T00:59:06.083Z,53.31
2022-08-18T01:00:11.999Z,53.70
2022-08-18T01:01:14.182Z,53.64
2022-08-18T01:02:36.056Z,53.56
2022-08-18T01:03:39.830Z,53.72
2022-08-18T01:04:55.506Z,53.56
2022-08-18T01:05:59.405Z,53.54
2022-08-18T01:07:02.159Z,53.55
2022-08-18T01:08:03.946Z,53.53
2022-08-18T01:09:06.056Z,53.58
2022-08-18T01:10:09.457Z,53.52
2022-08-18T01:11:10.984Z,53.61
2022-08-18T01:12:44.594Z,53.59
2022-08-18T01:13:35.612Z,53.63
2022-08-18T01:14:37.507Z,53.41
2022-08-18T01:15:39.027Z,53.38
2022-08-18T01:16:59.281Z,53.45
2022-08-18T01:18:20.442Z,53.45
2022-08-18T01:19:40.501Z,53.33
2022-08-18T01:21:02.189Z,53.47
2022-08-18T01:22:33.192Z,53.53
2022-08-18T01:23:34.902Z,53.74
2022-08-18T01:24:55.039Z,53.61
2022-08-18T01:26:04.262Z,53.50
2022-08-18T01:27:05.824Z,53.60
2022-08-18T01:28:07.375Z,53.62
2022-08-18T01:29:18.562Z,53.62
2022-08-18T01:30:25.595Z,53.61
2022-08-18T01:31:54.572Z,53.50
2022-08-18T01:32:57.154Z,53.52
2022-08-18T01:33:59.446Z,53.67
2022-08-18T01:35:00.978Z,53.48
2022-08-18T01:36:14.490Z,53.80
2022-08-18T01:37:16.877Z,53.47
2022-08-18T01:38:19.091Z,53.72
2022-08-18T01:41:21.187Z,53.53
2022-08-18T01:41:24.575Z,53.49
2022-08-18T01:42:04.804Z,53.54
2022-08-18T01:43:06.410Z,53.59
2022-08-18T01:44:11.203Z,53.65
2022-08-18T01:45:13.664Z,53.99
2022-08-18T01:46:20.006Z,53.61
2022-08-18T01:47:21.509Z,53.61
2022-08-18T01:48:23.018Z,53.55
2022-08-18T01:49:24.574Z,53.76
2022-08-18T01:50:26.128Z,54.00
2022-08-18T01:51:39.944Z,54.17
2022-08-18T01:52:42.499Z,53.96
2022-08-18T01:53:45.055Z,53.94
2022-08-18T01:54:47.354Z,53.88
2022-08-18T01:55:50.019Z,53.88
2022-08-18T01:56:53.482Z,53.88
2022-08-18T01:57:55.392Z,53.77
2022-08-18T01:58:56.950Z,53.77
2022-08-18T02:00:01.074Z,53.75
2022-08-18T02:01:02.861Z,53.61
2022-08-18T02:02:04.508Z,53.68
2022-08-18T02:03:08.187Z,53.65
2022-08-18T02:04:33.791Z,53.70
2022-08-18T02:05:32.526Z,53.33
2022-08-18T02:06:34.071Z,53.56
2022-08-18T02:07:36.368Z,53.60
2022-08-18T02:08:38.307Z,53.74
2022-08-18T02:09:43.855Z,53.98
2022-08-18T02:10:45.380Z,54.32
2022-08-18T02:11:47.236Z,54.47
2022-08-18T02:12:50.061Z,54.33
2022-08-18T02:13:51.553Z,54.11
2022-08-18T02:14:53.150Z,54.78
2022-08-18T02:15:54.665Z,55.79
2022-08-18T02:17:01.532Z,56.53
2022-08-18T02:18:04.433Z,56.31
2022-08-18T02:19:05.920Z,56.15
2022-08-18T02:20:08.666Z,55.84
2022-08-18T02:21:11.346Z,55.60
2022-08-18T02:22:14.408Z,56.28
2022-08-18T02:23:15.991Z,56.70
2022-08-18T02:24:17.470Z,56.77
2022-08-18T02:25:19.191Z,57.13
2022-08-18T02:26:20.996Z,57.32
2022-08-18T02:27:22.490Z,57.69
2022-08-18T02:28:27.482Z,57.38
2022-08-18T02:29:32.059Z,57.64
2022-08-18T02:30:34.014Z,58.26
2022-08-18T02:31:35.575Z,58.49
2022-08-18T02:32:37.185Z,58.72
2022-08-18T02:33:38.725Z,58.87
2022-08-18T02:34:42.501Z,58.64
2022-08-18T02:35:46.205Z,59.06
2022-08-18T02:36:47.709Z,59.36
2022-08-18T02:37:49.247Z,59.22
2022-08-18T02:38:58.737Z,59.13
2022-08-18T02:40:01.626Z,59.26
2022-08-18T02:41:03.726Z,59.18
2022-08-18T02:42:05.735Z,59.56
2022-08-18T02:43:09.112Z,59.32
2022-08-18T02:44:10.635Z,58.98
2022-08-18T02:45:13.280Z,59.13
2022-08-18T02:46:14.863Z,59.10
2022-08-18T02:47:20.560Z,58.90
2022-08-18T02:48:37.230Z,58.89
2022-08-18T02:49:38.829Z,58.68
2022-08-18T02:50:47.221Z,59.00
2022-08-18T02:51:49.662Z,58.59
2022-08-18T02:52:51.175Z,58.55
2022-08-18T02:53:53.670Z,58.79
2022-08-18T02:54:55.635Z,58.96
2022-08-18T02:56:05.272Z,59.15
2022-08-18T02:57:08.135Z,59.29
2022-08-18T02:58:09.725Z,59.21
2022-08-18T02:59:12.139Z,59.24
2022-08-18T03:00:15.702Z,59.04
2022-08-18T03:01:21.672Z,59.02
2022-08-18T03:02:23.225Z,58.81
2022-08-18T03:03:24.921Z,58.94
2022-08-18T03:04:29.668Z,58.95
2022-08-18T03:05:31.582Z,58.67
2022-08-18T03:06:33.331Z,58.63
2022-08-18T03:07:34.850Z,58.68
2022-08-18T03:08:40.166Z,58.65
2022-08-18T03:09:41.872Z,58.65
2022-08-18T03:10:43.385Z,58.74
2022-08-18T03:11:44.956Z,58.63
2022-08-18T03:12:46.641Z,58.61
2022-08-18T03:13:48.287Z,58.58
2022-08-18T03:14:50.196Z,58.39
2022-08-18T03:15:56.647Z,58.50
2022-08-18T03:16:58.738Z,58.38
2022-08-18T03:18:01.286Z,58.21
2022-08-18T03:19:03.015Z,58.80
2022-08-18T03:20:04.766Z,59.65
2022-08-18T03:21:07.752Z,59.29
2022-08-18T03:22:24.325Z,59.11
2022-08-18T03:23:30.500Z,59.81
2022-08-18T03:24:32.603Z,59.84
2022-08-18T03:25:34.341Z,60.16
2022-08-18T03:26:36.250Z,60.04
2022-08-18T03:27:37.806Z,59.87
2022-08-18T03:28:40.822Z,59.81
2022-08-18T03:29:42.305Z,60.23
2022-08-18T03:30:43.875Z,59.98
2022-08-18T03:31:45.533Z,60.84
2022-08-18T03:32:47.480Z,61.06
2022-08-18T03:33:49.734Z,60.65
2022-08-18T03:34:51.319Z,61.37
2022-08-18T03:35:52.826Z,61.42
2022-08-18T03:36:54.398Z,61.14
2022-08-18T03:37:59.181Z,61.14
2022-08-18T03:39:07.956Z,60.68
2022-08-18T03:40:11.052Z,60.92
2022-08-18T03:41:13.603Z,61.26
2022-08-18T03:42:15.133Z,61.07
2022-08-18T03:43:49.776Z,61.61
2022-08-18T03:44:38.333Z,61.26
2022-08-18T03:45:39.963Z,61.59
2022-08-18T03:46:42.479Z,62.03
2022-08-18T03:47:45.926Z,62.32
2022-08-18T03:48:47.884Z,62.32
2022-08-18T03:49:49.476Z,61.95
2022-08-18T03:50:51.016Z,61.89
2022-08-18T03:51:52.501Z,61.96
2022-08-18T03:52:54.448Z,61.73
2022-08-18T03:53:56.633Z,61.44
2022-08-18T03:54:58.200Z,61.71
2022-08-18T03:55:59.703Z,61.75
2022-08-18T03:57:01.274Z,62.07
2022-08-18T03:58:03.423Z,62.26
2022-08-18T03:59:08.345Z,62.13
2022-08-18T04:00:10.197Z,62.19
2022-08-18T04:01:13.287Z,62.52
2022-08-18T04:02:28.431Z,61.98
2022-08-18T04:03:29.963Z,62.42
2022-08-18T04:04:31.535Z,62.47
2022-08-18T04:05:35.256Z,62.25
2022-08-18T04:07:04.676Z,62.43
2022-08-18T04:08:07.006Z,62.41
2022-08-18T04:09:09.867Z,62.72
2022-08-18T04:10:19.106Z,62.17
2022-08-18T04:11:21.286Z,62.17
2022-08-18T04:12:22.922Z,62.39
2022-08-18T04:13:24.461Z,62.05
2022-08-18T04:14:27.447Z,62.15
2022-08-18T04:15:29.048Z,62.07
2022-08-18T04:16:32.346Z,62.35
2022-08-18T04:17:33.844Z,62.79
2022-08-18T04:18:35.394Z,62.53
2022-08-18T04:19:37.950Z,62.49
2022-08-18T04:20:59.332Z,62.61
2022-08-18T04:22:03.055Z,62.53
2022-08-18T04:23:04.544Z,63.34
2022-08-18T04:24:07.720Z,63.37
2022-08-18T04:25:09.439Z,63.24
2022-08-18T04:26:11.512Z,63.16
2022-08-18T04:27:21.099Z,63.23
2022-08-18T04:28:22.592Z,63.13
2022-08-18T04:29:24.171Z,63.22
2022-08-18T04:30:25.675Z,63.03
2022-08-18T04:31:27.208Z,63.02
2022-08-18T04:32:30.441Z,63.37
2022-08-18T04:33:32.105Z,63.49
2022-08-18T04:34:33.711Z,63.42
2022-08-18T04:35:35.227Z,63.65
2022-08-18T04:36:36.897Z,63.60
2022-08-18T04:37:39.827Z,63.89
2022-08-18T04:38:43.355Z,63.57
2022-08-18T04:39:45.629Z,63.72
2022-08-18T04:40:47.434Z,63.45
2022-08-18T04:41:49.029Z,63.59
2022-08-18T04:42:50.508Z,63.64
2022-08-18T04:43:52.631Z,63.48
2022-08-18T04:44:54.796Z,63.52
2022-08-18T04:46:01.657Z,63.39
2022-08-18T04:47:03.440Z,63.26
2022-08-18T04:48:05.000Z,63.34
2022-08-18T04:49:06.779Z,63.35
2022-08-18T04:50:08.472Z,63.34
2022-08-18T04:51:10.952Z,63.30
2022-08-18T04:52:39.944Z,63.26
2022-08-18T04:53:45.567Z,63.12
2022-08-18T04:54:47.117Z,63.11
2022-08-18T04:55:49.302Z,63.17
2022-08-18T04:56:50.892Z,63.11
2022-08-18T04:57:52.530Z,63.31
2022-08-18T04:58:54.814Z,63.22
2022-08-18T04:59:58.264Z,63.22
2022-08-18T05:01:00.688Z,63.32
2022-08-18T05:02:05.748Z,63.16
2022-08-18T05:03:07.317Z,63.27
2022-08-18T05:04:09.095Z,63.37
2022-08-18T05:05:11.206Z,63.15
2022-08-18T05:06:12.875Z,63.19
2022-08-18T05:07:15.077Z,63.19
2022-08-18T05:08:16.660Z,63.16
2022-08-18T05:09:23.103Z,63.42
2022-08-18T05:10:25.038Z,63.54
2022-08-18T05:11:29.448Z,63.27
2022-08-18T05:12:31.038Z,63.44
2022-08-18T05:13:32.608Z,63.44
2022-08-18T05:14:34.634Z,63.50
2022-08-18T05:15:59.420Z,63.44
2022-08-18T05:17:02.538Z,63.03
2022-08-18T05:18:05.401Z,63.20
2022-08-18T05:19:08.909Z,63.38
2022-08-18T05:20:11.258Z,63.12
2022-08-18T05:21:16.374Z,63.19
2022-08-18T05:22:24.274Z,63.22
2022-08-18T05:23:31.858Z,63.17
2022-08-18T05:24:37.114Z,63.14
2022-08-18T05:25:40.125Z,63.13
2022-08-18T05:26:41.728Z,63.24
2022-08-18T05:27:43.841Z,63.34
2022-08-18T05:28:45.875Z,63.48
2022-08-18T05:29:51.456Z,63.58
2022-08-18T05:30:54.087Z,63.32
2022-08-18T05:31:57.847Z,63.50
2022-08-18T05:33:03.372Z,63.41
2022-08-18T05:34:05.785Z,63.59
2022-08-18T05:35:10.460Z,63.55
2022-08-18T05:36:24.233Z,63.64
2022-08-18T05:37:35.786Z,63.46
2022-08-18T05:38:55.915Z,63.44
2022-08-18T05:39:58.717Z,63.96
2022-08-18T05:41:04.989Z,63.87
2022-08-18T05:42:17.770Z,63.58
2022-08-18T05:43:19.293Z,63.64
2022-08-18T05:44:31.818Z,63.79
2022-08-18T05:45:34.743Z,63.68
2022-08-18T05:46:52.849Z,63.76
2022-08-18T05:47:57.564Z,64.04
2022-08-18T05:48:59.080Z,64.08
2022-08-18T05:50:05.307Z,64.32
2022-08-18T05:51:10.853Z,64.42
2022-08-18T05:52:32.652Z,64.26
2022-08-18T05:53:53.036Z,64.55
2022-08-18T05:55:14.731Z,65.00
2022-08-18T05:56:34.898Z,65.43
2022-08-18T05:57:51.445Z,65.49
2022-08-18T05:58:55.334Z,65.83
2022-08-18T05:59:56.931Z,65.87
2022-08-18T06:01:08.950Z,65.86
2022-08-18T06:02:16.081Z,65.79
2022-08-18T06:03:19.726Z,65.78
2022-08-18T06:04:29.577Z,65.86
2022-08-18T06:05:51.327Z,65.70
2022-08-18T06:06:52.814Z,65.63
2022-08-18T06:07:55.475Z,65.52
2022-08-18T06:09:15.861Z,66.00
2022-08-18T06:10:17.458Z,65.94
2022-08-18T06:11:22.785Z,65.84
2022-08-18T06:12:26.600Z,65.78
2022-08-18T06:13:28.169Z,65.46
2022-08-18T06:14:29.679Z,65.78
2022-08-18T06:15:33.962Z,65.79
2022-08-18T06:16:45.261Z,65.83
2022-08-18T06:17:53.127Z,65.55
2022-08-18T06:18:59.867Z,65.31
2022-08-18T06:20:10.219Z,65.46
2022-08-18T06:21:38.308Z,65.36
2022-08-18T06:22:52.737Z,65.20
2022-08-18T06:24:03.338Z,65.16
2022-08-18T06:25:18.472Z,65.37
2022-08-18T06:26:29.243Z,65.67
2022-08-18T06:27:39.919Z,65.79
2022-08-18T06:28:58.432Z,65.83
2022-08-18T06:30:05.012Z,65.73
2022-08-18T06:31:22.112Z,65.66
2022-08-18T06:32:35.003Z,65.63
2022-08-18T06:33:50.361Z,65.94
2022-08-18T06:34:51.890Z,66.02
2022-08-18T06:36:02.627Z,66.06
2022-08-18T06:37:09.535Z,65.98
2022-08-18T06:38:45.244Z,66.16
2022-08-18T06:39:50.987Z,66.14
2022-08-18T06:41:00.400Z,66.09
2022-08-18T06:42:04.730Z,66.00
2022-08-18T06:43:07.377Z,65.91
2022-08-18T06:44:12.980Z,65.76
2022-08-18T06:45:18.247Z,65.98
2022-08-18T06:46:22.008Z,66.09
2022-08-18T06:47:29.475Z,65.80
2022-08-18T06:48:37.769Z,65.54
2022-08-18T06:49:42.333Z,65.40
2022-08-18T06:50:48.127Z,65.21
2022-08-18T06:51:49.760Z,65.56
2022-08-18T06:52:55.337Z,65.44
2022-08-18T06:53:59.739Z,65.51
2022-08-18T06:55:02.589Z,65.45
2022-08-18T06:56:26.332Z,65.61
2022-08-18T06:57:28.314Z,65.95
2022-08-18T06:58:30.588Z,66.12
2022-08-18T06:59:33.276Z,66.25
2022-08-18T07:00:35.438Z,66.21
2022-08-18T07:01:38.773Z,65.94
2022-08-18T07:02:42.389Z,65.86
2022-08-18T07:03:44.990Z,65.85
2022-08-18T07:05:03.052Z,65.71
2022-08-18T07:06:04.656Z,65.80
2022-08-18T07:07:39.715Z,65.86
2022-08-18T07:08:45.486Z,65.78
2022-08-18T07:09:47.333Z,65.84
2022-08-18T07:10:52.451Z,65.71
2022-08-18T07:12:01.497Z,65.88
2022-08-18T07:13:14.927Z,65.85
2022-08-18T07:14:21.415Z,65.70
2022-08-18T07:15:23.418Z,65.54
2022-08-18T07:16:54.904Z,65.55
2022-08-18T07:17:53.434Z,65.35
2022-08-18T07:18:55.609Z,64.97
2022-08-18T07:19:58.355Z,64.75
2022-08-18T07:21:00.622Z,64.62
2022-08-18T07:22:05.396Z,64.08
2022-08-18T07:23:08.094Z,64.17
2022-08-18T07:24:25.102Z,64.55
2022-08-18T07:25:32.044Z,64.79
2022-08-18T07:26:52.231Z,65.13
2022-08-18T07:27:56.932Z,64.53
2022-08-18T07:28:58.668Z,64.56
2022-08-18T07:30:04.356Z,64.81
2022-08-18T07:31:16.884Z,64.97
2022-08-18T07:32:21.504Z,65.08
2022-08-18T07:33:24.088Z,65.17
2022-08-18T07:34:28.355Z,65.36
2022-08-18T07:35:36.323Z,65.48
2022-08-18T07:37:07.806Z,65.13
2022-08-18T07:38:40.908Z,65.00
2022-08-18T07:39:39.247Z,64.32
2022-08-18T07:40:56.366Z,63.80
2022-08-18T07:42:09.479Z,63.99
2022-08-18T07:43:13.901Z,64.18
2022-08-18T07:44:23.649Z,64.35
2022-08-18T07:45:28.849Z,63.88
2022-08-18T07:46:30.475Z,63.63
2022-08-18T07:47:32.879Z,63.60
2022-08-18T07:48:38.568Z,63.83
2022-08-18T07:49:59.640Z,64.17
2022-08-18T07:51:11.155Z,64.20
2022-08-18T07:52:36.448Z,64.18
2022-08-18T07:53:54.441Z,64.17
2022-08-18T07:54:57.517Z,64.07
2022-08-18T07:56:00.735Z,64.16
2022-08-18T07:57:05.295Z,64.06
2022-08-18T07:58:06.787Z,64.04
2022-08-18T07:59:20.510Z,63.88
2022-08-18T08:00:41.060Z,63.86
2022-08-18T08:01:53.646Z,64.06
2022-08-18T08:02:55.386Z,64.20
2022-08-18T08:03:59.732Z,64.12
2022-08-18T08:05:10.400Z,64.38
2022-08-18T08:06:15.050Z,64.28
2022-08-18T08:07:46.114Z,64.39
2022-08-18T08:09:06.579Z,64.55
2022-08-18T08:10:26.044Z,64.66
2022-08-18T08:11:39.642Z,64.55
2022-08-18T08:12:45.642Z,64.54
2022-08-18T08:13:56.102Z,64.56
2022-08-18T08:15:01.338Z,65.05
2022-08-18T08:16:04.256Z,65.28
2022-08-18T08:17:07.811Z,65.08
2022-08-18T08:18:24.305Z,64.89
2022-08-18T08:20:00.132Z,65.19
2022-08-18T08:21:13.752Z,65.03
2022-08-18T08:22:15.204Z,64.97
2022-08-18T08:23:19.796Z,65.44
2022-08-18T08:24:26.355Z,65.54
2022-08-18T08:25:49.018Z,65.59
2022-08-18T08:27:26.090Z,65.52
2022-08-18T08:28:31.203Z,65.46
2022-08-18T08:29:38.383Z,65.68
2022-08-18T08:30:55.281Z,65.33
2022-08-18T08:31:57.519Z,65.46
2022-08-18T08:33:05.082Z,65.21
2022-08-18T08:34:12.611Z,65.12
2022-08-18T08:35:47.358Z,65.34
2022-08-18T08:36:38.981Z,65.19
2022-08-18T08:37:44.871Z,65.43
2022-08-18T08:39:07.830Z,65.18
2022-08-18T08:40:24.553Z,65.27
2022-08-18T08:41:40.194Z,65.23
2022-08-18T08:42:41.707Z,65.08
2022-08-18T08:43:48.185Z,65.07
2022-08-18T08:44:59.320Z,64.97
2022-08-18T08:46:10.248Z,64.86
2022-08-18T08:47:15.443Z,64.79
2022-08-18T08:48:25.515Z,64.71
2022-08-18T08:49:59.035Z,64.33
2022-08-18T08:51:23.550Z,64.16
2022-08-18T08:52:40.152Z,64.12
2022-08-18T08:54:07.832Z,64.22
2022-08-18T08:55:18.395Z,63.92
2022-08-18T08:56:20.742Z,64.17
2022-08-18T08:57:22.633Z,64.19
2022-08-18T08:58:26.425Z,64.31
2022-08-18T08:59:28.009Z,64.43
2022-08-18T09:00:29.566Z,64.57
2022-08-18T09:01:36.958Z,64.75
2022-08-18T09:02:48.155Z,64.71
2022-08-18T09:03:53.484Z,64.61
2022-08-18T09:05:08.352Z,64.53
2022-08-18T09:06:26.224Z,64.88
2022-08-18T09:07:40.211Z,65.13
2022-08-18T09:08:46.135Z,65.21
2022-08-18T09:09:54.226Z,65.40
2022-08-18T09:11:07.389Z,65.52
2022-08-18T09:12:12.121Z,65.42
2022-08-18T09:13:33.947Z,65.29
2022-08-18T09:14:51.665Z,65.22
2022-08-18T09:15:55.799Z,65.16
2022-08-18T09:17:15.586Z,65.08
2022-08-18T09:18:34.156Z,65.14
2022-08-18T09:19:54.727Z,65.42
2022-08-18T09:21:16.511Z,65.92
2022-08-18T09:22:27.309Z,66.17
2022-08-18T09:23:49.271Z,66.12
2022-08-18T09:24:51.431Z,66.67
2022-08-18T09:25:58.484Z,66.33
2022-08-18T09:27:02.779Z,66.03
2022-08-18T09:28:11.860Z,65.66
2022-08-18T09:29:18.315Z,65.89
2022-08-18T09:30:38.510Z,66.17
2022-08-18T09:31:40.094Z,66.60
2022-08-18T09:32:45.122Z,66.78
2022-08-18T09:35:31.718Z,66.41
2022-08-18T09:36:33.237Z,66.30
2022-08-18T09:38:12.980Z,66.14
2022-08-18T09:41:34.357Z,65.92
2022-08-18T09:42:48.356Z,65.92
2022-08-18T09:44:21.394Z,66.10
2022-08-18T09:45:40.769Z,66.19
2022-08-18T09:46:42.312Z,66.25
2022-08-18T09:47:54.282Z,66.26
2022-08-18T09:49:28.001Z,66.35
2022-08-18T09:50:36.046Z,66.65
2022-08-18T09:51:40.220Z,66.60
2022-08-18T09:52:42.826Z,66.77
2022-08-18T09:53:46.042Z,66.67
2022-08-18T09:54:53.380Z,66.96
2022-08-18T09:56:00.762Z,67.03
2022-08-18T09:57:09.332Z,67.75
2022-08-18T09:58:35.032Z,67.92
2022-08-18T09:59:36.696Z,68.13
2022-08-18T10:00:38.977Z,68.08
2022-08-18T10:01:41.315Z,68.05
2022-08-18T10:02:45.668Z,68.25
2022-08-18T10:04:10.028Z,68.60
2022-08-18T10:05:20.072Z,67.49
2022-08-18T10:06:26.861Z,67.43
2022-08-18T10:07:35.357Z,67.69
2022-08-18T10:09:01.971Z,67.79
2022-08-18T10:10:59.713Z,67.91
2022-08-18T10:12:16.932Z,67.84
2022-08-18T10:13:25.525Z,67.90
2022-08-18T10:14:33.272Z,67.85
2022-08-18T10:15:45.894Z,67.73
2022-08-18T10:18:38.093Z,67.55
2022-08-18T10:19:53.527Z,67.11
2022-08-18T10:21:27.475Z,67.06
2022-08-18T10:22:43.481Z,67.18
2022-08-18T10:24:03.172Z,66.88
2022-08-18T10:25:22.648Z,66.54
2022-08-18T10:26:31.451Z,66.44
2022-08-18T10:27:44.569Z,66.65
2022-08-18T10:29:18.612Z,66.51
2022-08-18T10:30:34.446Z,66.58
2022-08-18T10:31:57.638Z,66.20
2022-08-18T10:33:00.986Z,65.82
2022-08-18T10:34:08.512Z,65.78
2022-08-18T10:35:39.169Z,65.67
2022-08-18T10:36:49.895Z,65.75
2022-08-18T10:37:51.405Z,65.67
2022-08-18T10:38:53.532Z,65.76
2022-08-18T10:39:57.936Z,65.70
2022-08-18T10:41:10.170Z,65.44
2022-08-18T10:42:22.715Z,65.79
2022-08-18T10:44:53.279Z,65.36
2022-08-18T10:46:24.541Z,64.67
2022-08-18T10:47:20.586Z,63.54
2022-08-18T10:48:30.828Z,62.65
2022-08-18T10:49:33.384Z,62.22
2022-08-18T10:50:53.153Z,63.29
2022-08-18T10:52:06.677Z,62.13
2022-08-18T10:54:50.992Z,62.24
2022-08-18T10:56:12.112Z,62.38
2022-08-18T10:57:16.796Z,62.35
2022-08-18T10:58:18.309Z,62.05
2022-08-18T10:59:19.804Z,61.73
2022-08-18T11:00:49.421Z,61.11
2022-08-18T11:02:02.551Z,61.72
2022-08-18T11:03:39.926Z,61.98
2022-08-18T11:04:33.977Z,61.91
2022-08-18T11:05:36.411Z,62.02
2022-08-18T11:06:41.973Z,62.04
2022-08-18T11:07:46.787Z,61.98
2022-08-18T11:08:57.558Z,62.19
2022-08-18T11:11:34.475Z,62.56
2022-08-18T11:13:07.338Z,62.64
2022-08-18T11:14:30.120Z,62.00
2022-08-18T11:15:45.189Z,62.88
2022-08-18T11:17:00.265Z,62.93
2022-08-18T11:18:05.534Z,63.53
2022-08-18T11:19:16.811Z,63.38
2022-08-18T11:20:28.143Z,63.47
2022-08-18T11:21:32.047Z,63.26
2022-08-18T11:22:34.455Z,61.80
2022-08-18T11:23:37.254Z,61.88
2022-08-18T11:24:46.564Z,61.10
2022-08-18T11:25:48.252Z,61.68
2022-08-18T11:26:53.608Z,61.90
2022-08-18T11:27:56.465Z,61.23
2022-08-18T11:28:58.006Z,61.47
2022-08-18T11:30:00.195Z,61.08
2022-08-18T11:31:01.695Z,60.92
2022-08-18T11:32:11.035Z,60.34
2022-08-18T11:33:23.227Z,60.71
2022-08-18T11:34:28.528Z,60.60
2022-08-18T11:35:31.583Z,60.65
2022-08-18T11:36:34.424Z,59.65
2022-08-18T11:39:03.229Z,59.44
2022-08-18T11:40:07.034Z,59.53
2022-08-18T11:41:19.111Z,60.07
2022-08-18T11:42:26.503Z,59.79
2022-08-18T11:43:29.904Z,59.22
2022-08-18T11:44:40.785Z,59.06
2022-08-18T11:45:46.621Z,58.74
2022-08-18T11:46:52.011Z,58.41
2022-08-18T11:48:00.988Z,58.22
2022-08-18T11:49:15.584Z,58.13
2022-08-18T11:50:19.580Z,58.55
2022-08-18T11:51:23.669Z,57.64
2022-08-18T11:52:32.879Z,56.27
2022-08-18T11:53:37.203Z,56.47
2022-08-18T11:54:50.929Z,56.26
2022-08-18T11:56:30.838Z,57.30
2022-08-18T11:57:56.233Z,56.65
2022-08-18T11:59:08.146Z,56.21
2022-08-18T12:00:28.721Z,57.04
2022-08-18T12:03:08.471Z,56.01
2022-08-18T12:04:13.461Z,56.01
2022-08-18T12:05:14.954Z,56.46
2022-08-18T12:06:26.846Z,56.43
2022-08-18T12:07:33.349Z,56.67
2022-08-18T12:11:43.465Z,56.21
2022-08-18T12:12:51.770Z,56.13
2022-08-18T12:13:57.428Z,55.82
2022-08-18T12:15:23.768Z,55.70
2022-08-18T12:16:35.780Z,55.86
2022-08-18T12:17:37.781Z,55.85
2022-08-18T12:18:39.286Z,55.72
2022-08-18T12:19:43.659Z,55.86
2022-08-18T12:20:49.074Z,55.40
2022-08-18T12:21:56.173Z,55.65
2022-08-18T12:22:58.143Z,55.70
2022-08-18T12:23:59.661Z,55.39
2022-08-18T12:25:01.248Z,55.42
2022-08-18T12:26:02.768Z,55.18
2022-08-18T12:27:20.402Z,54.98
2022-08-18T12:28:28.351Z,55.53
2022-08-18T12:29:36.730Z,55.24
2022-08-18T12:30:45.512Z,55.39
2022-08-18T12:31:48.935Z,55.41
2022-08-18T12:33:00.818Z,55.37
2022-08-18T12:34:08.744Z,55.07
2022-08-18T12:35:15.087Z,54.93
2022-08-18T12:36:16.688Z,54.95
2022-08-18T12:37:57.841Z,54.93
2022-08-18T12:38:43.608Z,55.37
2022-08-18T12:39:45.187Z,55.57
2022-08-18T12:40:46.753Z,55.05
2022-08-18T12:41:48.318Z,54.85
2022-08-18T12:42:50.875Z,55.22
2022-08-18T12:43:58.801Z,55.11
2022-08-18T12:45:01.106Z,55.44
2022-08-18T12:46:03.348Z,55.47
2022-08-18T12:47:07.246Z,55.39
2022-08-18T12:48:09.286Z,54.87
2022-08-18T12:49:14.440Z,55.38
2022-08-18T12:50:16.371Z,55.33
2022-08-18T12:51:18.581Z,55.16
2022-08-18T12:52:26.384Z,54.57
2022-08-18T12:53:29.626Z,54.94
2022-08-18T12:54:41.327Z,54.80
2022-08-18T12:55:57.403Z,54.30
2022-08-18T12:56:58.924Z,54.56
2022-08-18T12:58:03.913Z,54.59
2022-08-18T12:59:05.846Z,54.83
2022-08-18T13:00:09.124Z,54.71
2022-08-18T13:01:17.855Z,54.74
2022-08-18T13:02:19.521Z,55.21
2022-08-18T13:03:22.435Z,55.40
2022-08-18T13:04:27.047Z,55.40
2022-08-18T13:05:29.681Z,54.70
2022-08-18T13:06:32.988Z,54.81
2022-08-18T13:07:35.816Z,53.94
2022-08-18T13:08:50.010Z,53.72
2022-08-18T13:09:54.305Z,54.21
2022-08-18T13:11:14.661Z,53.76
2022-08-18T13:12:17.251Z,54.25
2022-08-18T13:13:19.041Z,53.82
2022-08-18T13:14:21.133Z,53.79
2022-08-18T13:15:24.354Z,53.96
2022-08-18T13:16:38.798Z,54.11
2022-08-18T13:17:50.422Z,53.01
2022-08-18T13:18:56.750Z,52.71
2022-08-18T13:19:58.338Z,52.92
2022-08-18T13:21:00.197Z,52.84
2022-08-18T13:22:01.768Z,53.20
2022-08-18T13:23:04.990Z,53.37
2022-08-18T13:24:10.119Z,53.35
2022-08-18T13:25:28.680Z,53.17
2022-08-18T13:26:36.516Z,53.13
2022-08-18T13:27:38.642Z,52.38
2022-08-18T13:28:52.869Z,52.98
2022-08-18T13:29:58.837Z,52.54
2022-08-18T13:31:00.428Z,52.01
2022-08-18T13:32:04.776Z,51.82
2022-08-18T13:33:53.564Z,51.90
2022-08-18T13:34:31.187Z,52.44
2022-08-18T13:35:38.098Z,52.24
2022-08-18T13:36:47.833Z,52.45
2022-08-18T13:37:49.529Z,52.52
2022-08-18T13:38:54.541Z,52.81
2022-08-18T13:39:56.342Z,52.25
2022-08-18T13:40:59.282Z,52.07
2022-08-18T13:42:01.427Z,52.27
2022-08-18T13:43:26.007Z,51.64
2022-08-18T13:44:29.109Z,51.40
2022-08-18T13:45:30.631Z,51.25
2022-08-18T13:46:34.444Z,51.47
2022-08-18T13:47:38.043Z,50.96
2022-08-18T13:48:41.717Z,51.06
2022-08-18T13:49:43.441Z,50.77
2022-08-18T13:51:01.223Z,51.06
2022-08-18T13:52:05.555Z,50.95
2022-08-18T13:53:14.620Z,50.81
2022-08-18T13:54:31.265Z,50.81
2022-08-18T13:55:33.316Z,50.85
2022-08-18T13:56:36.766Z,50.35
2022-08-18T13:57:41.958Z,50.50
2022-08-18T13:58:53.167Z,50.54
2022-08-18T13:59:55.174Z,50.67
2022-08-18T14:02:26.818Z,50.76
2022-08-18T14:03:30.955Z,50.66
2022-08-18T14:04:44.913Z,50.68
2022-08-18T14:06:01.047Z,50.76
2022-08-18T14:07:08.892Z,50.42
2022-08-18T14:08:12.472Z,50.79
2022-08-18T14:09:36.348Z,50.46
2022-08-18T14:10:39.244Z,50.78
2022-08-18T14:11:41.828Z,50.08
2022-08-18T14:12:43.464Z,50.21
2022-08-18T14:13:45.007Z,50.82
2022-08-18T14:14:46.619Z,50.60
2022-08-18T14:15:53.093Z,50.97
2022-08-18T14:16:55.263Z,51.43
2022-08-18T14:17:58.914Z,50.76
2022-08-18T14:19:26.800Z,51.22
2022-08-18T14:20:49.123Z,50.98
2022-08-18T14:22:11.854Z,50.60
2022-08-18T14:23:53.230Z,50.29
2022-08-18T14:25:13.749Z,50.58
2022-08-18T14:26:33.676Z,50.54
2022-08-18T14:27:36.177Z,50.11
2022-08-18T14:28:38.236Z,50.55
2022-08-18T14:29:46.248Z,50.39
2022-08-18T14:30:54.240Z,50.52
2022-08-18T14:31:56.255Z,50.67
2022-08-18T14:32:58.315Z,50.54
2022-08-18T14:34:03.871Z,50.79
2022-08-18T14:35:31.779Z,50.55
2022-08-18T14:36:29.861Z,50.58
2022-08-18T14:37:32.110Z,50.79
2022-08-18T14:38:36.530Z,50.75
2022-08-18T14:39:39.907Z,50.28
2022-08-18T14:40:43.137Z,49.98
2022-08-18T14:41:54.619Z,50.12
2022-08-18T14:42:58.059Z,49.95
2022-08-18T14:44:13.210Z,49.85
2022-08-18T14:45:26.560Z,49.93
2022-08-18T14:46:33.126Z,49.99